Terminal Aerodrome Forecast
Issued by NWS Norman, OK

Home | Current Version | Previous Version | Text Only | Print | Product List | Glossary On
Versions: 1 2 3 4 5 6 7 8 9 10 11 12 13 14 15 16 17 18 19 20 21 22 23 24 25 26 27 28
000
FTUS44 KOUN 290019 AAA
TAFSPS
TAF AMD
KSPS 290019Z 2900/2924 07010KT 5SM -RA VCTS BKN040CB
     FM290100 12010KT P6SM BKN100
     FM290200 21010G15KT 5SM -RA VCTS SCT050CB OVC100
      TEMPO 2902/2906 VRB15G25KT 4SM TSRA BKN040CB
     FM291100 17007KT P6SM OVC120 PROB30 2919/2924 5SM TSRA
      BKN040CB=

USA.gov is the U.S. government's official web portal to all federal, state and local government web resources and services.